TimePST,TemperatureF,Dew PointF,Humidity,Sea Level PressureIn,VisibilityMPH,Wind Direction,Wind SpeedMPH,Gust SpeedMPH,PrecipitationIn,Events,Conditions,WindDirDegrees,DateUTC
12:53 AM,39.0,36.0,89,30.11,5.0,ENE,6.9,-,N/A,,Clear,60,2012-12-11 08:53:00
1:53 AM,37.9,36.0,93,30.10,5.0,Calm,Calm,-,N/A,,Clear,0,2012-12-11 09:53:00
2:53 AM,36.0,35.1,97,30.10,4.0,Calm,Calm,-,N/A,,Clear,0,2012-12-11 10:53:00
3:53 AM,36.0,34.0,93,30.09,4.0,Calm,Calm,-,N/A,,Clear,0,2012-12-11 11:53:00
4:53 AM,35.1,34.0,96,30.09,3.0,Calm,Calm,-,N/A,,Clear,0,2012-12-11 12:53:00
5:36 AM,35.6,33.8,93,30.07,2.5,Calm,Calm,-,N/A,,Clear,0,2012-12-11 13:36:00
5:53 AM,33.1,33.1,100,30.08,3.0,Calm,Calm,-,N/A,,Clear,0,2012-12-11 13:53:00
6:02 AM,35.6,33.8,93,30.07,2.5,Calm,Calm,-,N/A,,Clear,0,2012-12-11 14:02:00
6:17 AM,33.8,32.0,93,30.08,3.0,Calm,Calm,-,N/A,,Clear,0,2012-12-11 14:17:00
6:49 AM,33.8,33.8,100,30.07,2.5,Calm,Calm,-,N/A,,Clear,0,2012-12-11 14:49:00
6:53 AM,33.1,32.0,96,30.08,2.5,Calm,Calm,-,N/A,,Clear,0,2012-12-11 14:53:00
7:53 AM,35.1,34.0,96,30.09,2.0,Calm,Calm,-,N/A,,Clear,0,2012-12-11 15:53:00
8:16 AM,35.6,35.6,100,30.08,3.0,Calm,Calm,-,N/A,,Clear,0,2012-12-11 16:16:00
8:23 AM,35.6,35.6,100,30.08,2.0,Calm,Calm,-,N/A,,Clear,0,2012-12-11 16:23:00
8:48 AM,37.4,37.4,100,30.08,3.0,Calm,Calm,-,N/A,,Clear,0,2012-12-11 16:48:00
8:53 AM,39.0,37.0,93,30.09,4.0,Calm,Calm,-,N/A,,Clear,0,2012-12-11 16:53:00
9:53 AM,44.1,41.0,89,30.07,6.0,Calm,Calm,-,N/A,,Clear,0,2012-12-11 17:53:00
10:53 AM,50.0,42.1,74,30.06,8.0,Calm,Calm,-,N/A,,Clear,0,2012-12-11 18:53:00
11:53 AM,55.9,42.1,60,30.01,10.0,Calm,Calm,-,N/A,,Clear,0,2012-12-11 19:53:00
12:53 PM,62.1,41.0,46,29.96,10.0,SSE,3.5,-,N/A,,Clear,160,2012-12-11 20:53:00
1:53 PM,66.0,42.1,42,29.93,10.0,SW,4.6,-,N/A,,Clear,220,2012-12-11 21:53:00
2:53 PM,66.9,39.0,36,29.92,10.0,SSW,11.5,-,N/A,,Clear,200,2012-12-11 22:53:00
3:53 PM,62.1,44.1,52,29.92,10.0,South,10.4,-,N/A,,Clear,190,2012-12-11 23:53:00
4:53 PM,57.0,42.1,57,29.91,10.0,South,5.8,-,N/A,,Clear,170,2012-12-12 00:53:00
5:53 PM,53.1,48.0,83,29.92,10.0,SSW,11.5,-,N/A,,Clear,200,2012-12-12 01:53:00
6:53 PM,52.0,48.0,86,29.91,10.0,SSW,8.1,-,N/A,,Clear,200,2012-12-12 02:53:00
7:53 PM,52.0,48.0,86,29.92,10.0,SSW,10.4,-,N/A,,Clear,200,2012-12-12 03:53:00
8:53 PM,51.1,48.0,89,29.92,10.0,South,4.6,-,N/A,,Scattered Clouds,180,2012-12-12 04:53:00
9:04 PM,51.8,48.2,88,29.92,10.0,South,3.5,-,N/A,,Mostly Cloudy,170,2012-12-12 05:04:00
9:53 PM,52.0,48.0,86,29.91,10.0,SSW,5.8,-,N/A,,Overcast,200,2012-12-12 05:53:00
10:19 PM,51.8,48.2,88,29.91,10.0,Calm,Calm,-,N/A,,Overcast,0,2012-12-12 06:19:00
10:53 PM,53.1,46.9,80,29.92,10.0,SW,4.6,-,N/A,,Overcast,230,2012-12-12 06:53:00
11:04 PM,53.6,48.2,82,29.93,10.0,West,6.9,-,N/A,,Overcast,270,2012-12-12 07:04:00
11:30 PM,53.6,48.2,82,29.93,10.0,WSW,6.9,23.0,N/A,,Overcast,240,2012-12-12 07:30:00
11:53 PM,53.1,48.0,83,29.92,10.0,South,4.6,-,N/A,,Overcast,190,2012-12-12 07:53:00